sensor_id;sensor_type;location;lat;lon;timestamp;P1;durP1;ratioP1;P2;durP2;ratioP2
64157;SDS011;50449;51.528;5.076;2023-07-20T00:00:50;96.03;;;91.50;;
64157;SDS011;50449;51.528;5.076;2023-07-20T00:05:50;95.72;;;91.32;;
64157;SDS011;50449;51.528;5.076;2023-07-20T00:08:16;96.45;;;91.93;;
64157;SDS011;50449;51.528;5.076;2023-07-20T00:10:43;97.30;;;92.55;;
64157;SDS011;50449;51.528;5.076;2023-07-20T00:13:11;94.72;;;90.43;;
64157;SDS011;50449;51.528;5.076;2023-07-20T00:15:37;97.35;;;92.70;;
64157;SDS011;50449;51.528;5.076;2023-07-20T00:18:03;96.80;;;92.25;;
64157;SDS011;50449;51.528;5.076;2023-07-20T00:20:29;96.53;;;91.97;;
64157;SDS011;50449;51.528;5.076;2023-07-20T00:22:54;96.10;;;91.40;;
64157;SDS011;50449;51.528;5.076;2023-07-20T00:25:22;95.50;;;90.97;;
64157;SDS011;50449;51.528;5.076;2023-07-20T00:27:48;99.45;;;94.88;;
64157;SDS011;50449;51.528;5.076;2023-07-20T00:30:13;95.90;;;91.47;;
64157;SDS011;50449;51.528;5.076;2023-07-20T00:32:39;101.18;;;95.93;;
64157;SDS011;50449;51.528;5.076;2023-07-20T00:35:04;94.35;;;89.85;;
64157;SDS011;50449;51.528;5.076;2023-07-20T00:37:30;100.53;;;95.57;;
64157;SDS011;50449;51.528;5.076;2023-07-20T00:39:56;96.47;;;91.93;;
64157;SDS011;50449;51.528;5.076;2023-07-20T00:42:22;96.15;;;91.45;;
64157;SDS011;50449;51.528;5.076;2023-07-20T00:44:47;98.82;;;93.72;;
64157;SDS011;50449;51.528;5.076;2023-07-20T00:47:12;95.68;;;91.03;;
64157;SDS011;50449;51.528;5.076;2023-07-20T00:49:38;96.80;;;91.68;;
64157;SDS011;50449;51.528;5.076;2023-07-20T00:52:05;98.32;;;92.93;;
64157;SDS011;50449;51.528;5.076;2023-07-20T00:54:32;97.38;;;92.25;;
64157;SDS011;50449;51.528;5.076;2023-07-20T00:56:59;92.95;;;88.32;;
64157;SDS011;50449;51.528;5.076;2023-07-20T00:59:26;96.88;;;92.40;;
64157;SDS011;50449;51.528;5.076;2023-07-20T01:01:51;94.18;;;89.78;;
64157;SDS011;50449;51.528;5.076;2023-07-20T01:04:17;94.93;;;90.20;;
64157;SDS011;50449;51.528;5.076;2023-07-20T01:10:01;94.35;;;89.95;;
64157;SDS011;50449;51.528;5.076;2023-07-20T01:12:39;95.50;;;90.88;;
64157;SDS011;50449;51.528;5.076;2023-07-20T01:15:07;94.15;;;89.13;;
64157;SDS011;50449;51.528;5.076;2023-07-20T01:17:36;94.72;;;89.93;;
64157;SDS011;50449;51.528;5.076;2023-07-20T01:31:21;93.63;;;88.67;;
64157;SDS011;50449;51.528;5.076;2023-07-20T01:33:48;95.10;;;90.60;;
64157;SDS011;50449;51.528;5.076;2023-07-20T01:36:16;97.20;;;92.60;;
64157;SDS011;50449;51.528;5.076;2023-07-20T01:38:43;96.20;;;91.03;;
64157;SDS011;50449;51.528;5.076;2023-07-20T01:41:09;96.03;;;91.28;;
64157;SDS011;50449;51.528;5.076;2023-07-20T01:43:35;90.72;;;86.20;;
64157;SDS011;50449;51.528;5.076;2023-07-20T01:46:01;94.55;;;90.03;;
64157;SDS011;50449;51.528;5.076;2023-07-20T01:48:26;91.93;;;87.35;;
64157;SDS011;50449;51.528;5.076;2023-07-20T01:50:52;95.85;;;91.32;;
64157;SDS011;50449;51.528;5.076;2023-07-20T01:53:17;92.88;;;88.28;;
64157;SDS011;50449;51.528;5.076;2023-07-20T01:55:43;96.43;;;91.65;;
64157;SDS011;50449;51.528;5.076;2023-07-20T01:58:08;94.78;;;90.25;;
64157;SDS011;50449;51.528;5.076;2023-07-20T02:00:34;95.38;;;90.75;;
64157;SDS011;50449;51.528;5.076;2023-07-20T02:03:02;92.40;;;87.90;;
64157;SDS011;50449;51.528;5.076;2023-07-20T02:05:27;93.18;;;88.13;;
64157;SDS011;50449;51.528;5.076;2023-07-20T02:07:53;95.55;;;90.35;;
64157;SDS011;50449;51.528;5.076;2023-07-20T02:10:18;94.15;;;89.45;;
64157;SDS011;50449;51.528;5.076;2023-07-20T02:12:43;96.63;;;91.55;;
64157;SDS011;50449;51.528;5.076;2023-07-20T02:15:09;94.07;;;89.38;;
64157;SDS011;50449;51.528;5.076;2023-07-20T02:17:35;93.57;;;89.07;;
64157;SDS011;50449;51.528;5.076;2023-07-20T02:20:00;93.20;;;88.65;;
64157;SDS011;50449;51.528;5.076;2023-07-20T02:22:25;90.10;;;85.65;;
64157;SDS011;50449;51.528;5.076;2023-07-20T02:24:51;93.65;;;88.97;;
64157;SDS011;50449;51.528;5.076;2023-07-20T02:27:16;94.45;;;89.55;;
64157;SDS011;50449;51.528;5.076;2023-07-20T02:29:42;96.00;;;91.32;;
64157;SDS011;50449;51.528;5.076;2023-07-20T02:32:08;95.00;;;90.13;;
64157;SDS011;50449;51.528;5.076;2023-07-20T02:34:35;89.30;;;84.68;;
64157;SDS011;50449;51.528;5.076;2023-07-20T02:37:00;97.93;;;93.13;;
64157;SDS011;50449;51.528;5.076;2023-07-20T02:39:29;95.50;;;90.43;;
64157;SDS011;50449;51.528;5.076;2023-07-20T02:41:54;94.60;;;89.85;;
64157;SDS011;50449;51.528;5.076;2023-07-20T02:44:20;94.55;;;89.75;;
64157;SDS011;50449;51.528;5.076;2023-07-20T02:46:45;98.93;;;94.03;;
64157;SDS011;50449;51.528;5.076;2023-07-20T02:49:11;95.93;;;90.95;;
64157;SDS011;50449;51.528;5.076;2023-07-20T02:51:36;93.03;;;88.03;;
64157;SDS011;50449;51.528;5.076;2023-07-20T02:54:02;93.32;;;88.47;;
64157;SDS011;50449;51.528;5.076;2023-07-20T02:56:28;93.28;;;88.50;;
64157;SDS011;50449;51.528;5.076;2023-07-20T02:58:54;92.45;;;87.57;;
64157;SDS011;50449;51.528;5.076;2023-07-20T03:01:20;90.28;;;85.78;;
64157;SDS011;50449;51.528;5.076;2023-07-20T03:03:45;91.60;;;86.80;;
64157;SDS011;50449;51.528;5.076;2023-07-20T03:06:14;91.25;;;86.63;;
64157;SDS011;50449;51.528;5.076;2023-07-20T03:08:40;94.57;;;89.78;;
64157;SDS011;50449;51.528;5.076;2023-07-20T03:11:12;93.75;;;88.90;;
64157;SDS011;50449;51.528;5.076;2023-07-20T03:13:38;95.00;;;89.88;;
64157;SDS011;50449;51.528;5.076;2023-07-20T03:16:04;93.28;;;88.68;;
64157;SDS011;50449;51.528;5.076;2023-07-20T03:18:29;91.53;;;86.95;;
64157;SDS011;50449;51.528;5.076;2023-07-20T03:20:55;92.60;;;87.90;;
64157;SDS011;50449;51.528;5.076;2023-07-20T03:23:20;94.63;;;89.80;;
64157;SDS011;50449;51.528;5.076;2023-07-20T03:25:45;92.05;;;87.45;;
64157;SDS011;50449;51.528;5.076;2023-07-20T03:28:11;90.30;;;85.70;;
64157;SDS011;50449;51.528;5.076;2023-07-20T03:30:36;92.93;;;88.38;;
64157;SDS011;50449;51.528;5.076;2023-07-20T03:33:02;88.93;;;84.32;;
64157;SDS011;50449;51.528;5.076;2023-07-20T03:35:28;90.03;;;85.05;;
64157;SDS011;50449;51.528;5.076;2023-07-20T03:37:53;92.38;;;87.78;;
64157;SDS011;50449;51.528;5.076;2023-07-20T03:40:18;91.70;;;87.07;;
64157;SDS011;50449;51.528;5.076;2023-07-20T03:42:44;91.93;;;87.28;;
64157;SDS011;50449;51.528;5.076;2023-07-20T03:45:09;89.68;;;84.88;;
64157;SDS011;50449;51.528;5.076;2023-07-20T03:47:35;88.97;;;84.68;;
64157;SDS011;50449;51.528;5.076;2023-07-20T03:50:00;88.30;;;83.70;;
64157;SDS011;50449;51.528;5.076;2023-07-20T03:52:26;93.25;;;88.43;;
64157;SDS011;50449;51.528;5.076;2023-07-20T03:54:51;90.38;;;85.47;;
64157;SDS011;50449;51.528;5.076;2023-07-20T03:57:17;88.82;;;84.53;;
64157;SDS011;50449;51.528;5.076;2023-07-20T03:59:44;87.95;;;83.57;;
64157;SDS011;50449;51.528;5.076;2023-07-20T04:02:11;90.03;;;85.43;;
64157;SDS011;50449;51.528;5.076;2023-07-20T04:04:36;85.55;;;81.45;;
64157;SDS011;50449;51.528;5.076;2023-07-20T04:07:02;90.80;;;85.85;;
64157;SDS011;50449;51.528;5.076;2023-07-20T04:09:27;81.20;;;76.97;;
64157;SDS011;50449;51.528;5.076;2023-07-20T04:11:53;81.82;;;77.63;;
64157;SDS011;50449;51.528;5.076;2023-07-20T04:14:19;81.53;;;77.50;;
64157;SDS011;50449;51.528;5.076;2023-07-20T04:16:46;86.95;;;82.80;;
64157;SDS011;50449;51.528;5.076;2023-07-20T04:19:12;83.65;;;79.38;;
64157;SDS011;50449;51.528;5.076;2023-07-20T04:21:40;85.63;;;81.53;;
64157;SDS011;50449;51.528;5.076;2023-07-20T04:24:06;84.80;;;80.70;;
64157;SDS011;50449;51.528;5.076;2023-07-20T04:26:31;82.28;;;78.35;;
64157;SDS011;50449;51.528;5.076;2023-07-20T04:28:57;86.03;;;81.72;;
64157;SDS011;50449;51.528;5.076;2023-07-20T04:31:24;81.00;;;77.00;;
64157;SDS011;50449;51.528;5.076;2023-07-20T04:33:50;80.13;;;76.30;;
64157;SDS011;50449;51.528;5.076;2023-07-20T04:36:15;80.70;;;76.80;;
64157;SDS011;50449;51.528;5.076;2023-07-20T04:41:09;79.57;;;75.78;;
64157;SDS011;50449;51.528;5.076;2023-07-20T04:43:37;80.50;;;76.70;;
64157;SDS011;50449;51.528;5.076;2023-07-20T04:46:06;80.40;;;76.25;;
64157;SDS011;50449;51.528;5.076;2023-07-20T04:48:31;79.70;;;75.90;;
64157;SDS011;50449;51.528;5.076;2023-07-20T04:50:56;81.65;;;77.90;;
64157;SDS011;50449;51.528;5.076;2023-07-20T04:53:22;82.43;;;78.63;;
64157;SDS011;50449;51.528;5.076;2023-07-20T04:55:48;80.30;;;76.50;;
64157;SDS011;50449;51.528;5.076;2023-07-20T04:58:15;82.90;;;79.03;;
64157;SDS011;50449;51.528;5.076;2023-07-20T05:00:42;84.25;;;80.25;;
64157;SDS011;50449;51.528;5.076;2023-07-20T05:03:07;84.57;;;80.43;;
64157;SDS011;50449;51.528;5.076;2023-07-20T05:05:32;82.38;;;78.20;;
64157;SDS011;50449;51.528;5.076;2023-07-20T05:07:58;80.50;;;76.70;;
64157;SDS011;50449;51.528;5.076;2023-07-20T05:10:23;79.28;;;75.63;;
64157;SDS011;50449;51.528;5.076;2023-07-20T05:12:49;80.32;;;76.38;;
64157;SDS011;50449;51.528;5.076;2023-07-20T05:15:14;82.00;;;78.10;;
64157;SDS011;50449;51.528;5.076;2023-07-20T05:17:40;77.28;;;73.68;;
64157;SDS011;50449;51.528;5.076;2023-07-20T05:20:05;81.13;;;77.32;;
64157;SDS011;50449;51.528;5.076;2023-07-20T05:22:31;78.82;;;75.22;;
64157;SDS011;50449;51.528;5.076;2023-07-20T05:24:57;78.20;;;74.50;;
64157;SDS011;50449;51.528;5.076;2023-07-20T05:27:22;77.95;;;74.25;;
64157;SDS011;50449;51.528;5.076;2023-07-20T05:29:48;82.05;;;78.10;;
64157;SDS011;50449;51.528;5.076;2023-07-20T05:32:13;80.40;;;76.60;;
64157;SDS011;50449;51.528;5.076;2023-07-20T05:34:39;80.03;;;76.22;;
64157;SDS011;50449;51.528;5.076;2023-07-20T05:37:04;81.65;;;77.60;;
64157;SDS011;50449;51.528;5.076;2023-07-20T05:39:31;80.05;;;76.38;;
64157;SDS011;50449;51.528;5.076;2023-07-20T05:41:57;78.32;;;74.75;;
64157;SDS011;50449;51.528;5.076;2023-07-20T05:44:23;78.75;;;75.05;;
64157;SDS011;50449;51.528;5.076;2023-07-20T05:46:48;82.07;;;78.22;;
64157;SDS011;50449;51.528;5.076;2023-07-20T05:49:14;82.07;;;77.95;;
64157;SDS011;50449;51.528;5.076;2023-07-20T05:51:39;81.25;;;77.15;;
64157;SDS011;50449;51.528;5.076;2023-07-20T05:54:05;82.07;;;78.30;;
64157;SDS011;50449;51.528;5.076;2023-07-20T05:56:30;80.38;;;76.57;;
64157;SDS011;50449;51.528;5.076;2023-07-20T05:58:55;80.18;;;76.38;;
64157;SDS011;50449;51.528;5.076;2023-07-20T06:01:21;81.43;;;77.60;;
64157;SDS011;50449;51.528;5.076;2023-07-20T06:03:46;77.97;;;74.45;;
64157;SDS011;50449;51.528;5.076;2023-07-20T06:06:12;80.15;;;76.07;;
64157;SDS011;50449;51.528;5.076;2023-07-20T06:08:37;78.53;;;74.97;;
64157;SDS011;50449;51.528;5.076;2023-07-20T06:11:03;86.00;;;82.18;;
64157;SDS011;50449;51.528;5.076;2023-07-20T06:13:29;82.70;;;78.97;;
64157;SDS011;50449;51.528;5.076;2023-07-20T06:15:54;80.63;;;77.03;;
64157;SDS011;50449;51.528;5.076;2023-07-20T06:18:22;81.72;;;78.00;;
64157;SDS011;50449;51.528;5.076;2023-07-20T06:20:51;78.23;;;74.73;;
64157;SDS011;50449;51.528;5.076;2023-07-20T06:23:18;79.10;;;75.50;;
64157;SDS011;50449;51.528;5.076;2023-07-20T06:25:44;80.72;;;76.93;;
64157;SDS011;50449;51.528;5.076;2023-07-20T06:28:10;79.15;;;75.55;;
64157;SDS011;50449;51.528;5.076;2023-07-20T06:30:36;80.57;;;76.90;;
64157;SDS011;50449;51.528;5.076;2023-07-20T06:33:01;81.45;;;77.82;;
64157;SDS011;50449;51.528;5.076;2023-07-20T06:35:26;78.25;;;74.70;;
64157;SDS011;50449;51.528;5.076;2023-07-20T06:37:52;77.03;;;73.53;;
64157;SDS011;50449;51.528;5.076;2023-07-20T06:40:17;81.43;;;77.40;;
64157;SDS011;50449;51.528;5.076;2023-07-20T06:42:43;80.38;;;76.80;;
64157;SDS011;50449;51.528;5.076;2023-07-20T06:45:09;79.07;;;75.55;;
64157;SDS011;50449;51.528;5.076;2023-07-20T06:47:34;79.93;;;76.38;;
64157;SDS011;50449;51.528;5.076;2023-07-20T06:52:28;78.10;;;74.47;;
64157;SDS011;50449;51.528;5.076;2023-07-20T06:54:54;76.75;;;72.90;;
64157;SDS011;50449;51.528;5.076;2023-07-20T06:57:19;79.22;;;75.43;;
64157;SDS011;50449;51.528;5.076;2023-07-20T06:59:44;79.57;;;75.68;;
64157;SDS011;50449;51.528;5.076;2023-07-20T07:02:10;79.40;;;75.85;;
64157;SDS011;50449;51.528;5.076;2023-07-20T07:04:35;83.00;;;79.32;;
64157;SDS011;50449;51.528;5.076;2023-07-20T07:07:01;79.95;;;76.35;;
64157;SDS011;50449;51.528;5.076;2023-07-20T07:09:27;81.53;;;77.40;;
64157;SDS011;50449;51.528;5.076;2023-07-20T07:11:53;82.97;;;79.18;;
64157;SDS011;50449;51.528;5.076;2023-07-20T07:14:19;81.53;;;77.53;;
64157;SDS011;50449;51.528;5.076;2023-07-20T07:16:45;80.05;;;76.50;;
64157;SDS011;50449;51.528;5.076;2023-07-20T07:19:10;80.75;;;77.15;;
64157;SDS011;50449;51.528;5.076;2023-07-20T07:21:36;81.80;;;77.38;;
64157;SDS011;50449;51.528;5.076;2023-07-20T07:24:01;82.50;;;78.68;;
64157;SDS011;50449;51.528;5.076;2023-07-20T07:26:26;84.15;;;80.35;;
64157;SDS011;50449;51.528;5.076;2023-07-20T07:28:52;82.95;;;79.35;;
64157;SDS011;50449;51.528;5.076;2023-07-20T07:31:17;81.78;;;78.15;;
64157;SDS011;50449;51.528;5.076;2023-07-20T07:33:43;82.97;;;79.22;;
64157;SDS011;50449;51.528;5.076;2023-07-20T07:36:08;82.32;;;78.53;;
64157;SDS011;50449;51.528;5.076;2023-07-20T07:38:33;82.40;;;78.55;;
64157;SDS011;50449;51.528;5.076;2023-07-20T07:40:59;81.82;;;78.20;;
64157;SDS011;50449;51.528;5.076;2023-07-20T07:43:24;83.50;;;79.60;;
64157;SDS011;50449;51.528;5.076;2023-07-20T07:45:50;82.70;;;78.82;;
64157;SDS011;50449;51.528;5.076;2023-07-20T07:48:19;81.95;;;78.25;;
64157;SDS011;50449;51.528;5.076;2023-07-20T07:50:45;82.72;;;79.03;;
64157;SDS011;50449;51.528;5.076;2023-07-20T07:53:11;80.88;;;77.13;;
64157;SDS011;50449;51.528;5.076;2023-07-20T07:55:36;81.53;;;77.93;;
64157;SDS011;50449;51.528;5.076;2023-07-20T07:58:02;82.78;;;79.15;;
64157;SDS011;50449;51.528;5.076;2023-07-20T08:00:27;84.40;;;80.63;;
64157;SDS011;50449;51.528;5.076;2023-07-20T08:02:52;85.95;;;82.15;;
64157;SDS011;50449;51.528;5.076;2023-07-20T08:05:18;88.78;;;84.88;;
64157;SDS011;50449;51.528;5.076;2023-07-20T08:07:43;87.78;;;83.93;;
64157;SDS011;50449;51.528;5.076;2023-07-20T08:10:09;85.70;;;81.93;;
64157;SDS011;50449;51.528;5.076;2023-07-20T08:12:34;87.88;;;83.97;;
64157;SDS011;50449;51.528;5.076;2023-07-20T08:15:00;83.97;;;80.35;;
64157;SDS011;50449;51.528;5.076;2023-07-20T08:17:26;86.90;;;82.90;;
64157;SDS011;50449;51.528;5.076;2023-07-20T08:19:51;86.22;;;82.38;;
64157;SDS011;50449;51.528;5.076;2023-07-20T08:22:16;86.03;;;82.25;;
64157;SDS011;50449;51.528;5.076;2023-07-20T08:24:42;87.18;;;82.93;;
64157;SDS011;50449;51.528;5.076;2023-07-20T08:27:09;86.15;;;82.35;;
64157;SDS011;50449;51.528;5.076;2023-07-20T08:29:35;88.65;;;84.60;;
64157;SDS011;50449;51.528;5.076;2023-07-20T08:32:01;88.85;;;84.75;;
64157;SDS011;50449;51.528;5.076;2023-07-20T08:34:27;92.18;;;88.07;;
64157;SDS011;50449;51.528;5.076;2023-07-20T08:36:53;89.03;;;85.03;;
64157;SDS011;50449;51.528;5.076;2023-07-20T08:39:18;89.38;;;85.35;;
64157;SDS011;50449;51.528;5.076;2023-07-20T08:41:44;89.80;;;85.70;;
64157;SDS011;50449;51.528;5.076;2023-07-20T08:44:11;94.22;;;87.55;;
64157;SDS011;50449;51.528;5.076;2023-07-20T08:46:38;86.57;;;82.78;;
64157;SDS011;50449;51.528;5.076;2023-07-20T08:49:05;89.85;;;85.85;;
64157;SDS011;50449;51.528;5.076;2023-07-20T08:51:32;90.90;;;86.63;;
64157;SDS011;50449;51.528;5.076;2023-07-20T08:53:58;94.30;;;90.10;;
64157;SDS011;50449;51.528;5.076;2023-07-20T08:56:25;92.05;;;88.00;;
64157;SDS011;50449;51.528;5.076;2023-07-20T08:58:54;92.78;;;88.47;;
64157;SDS011;50449;51.528;5.076;2023-07-20T09:01:21;93.43;;;89.30;;
64157;SDS011;50449;51.528;5.076;2023-07-20T09:03:47;90.80;;;86.90;;
64157;SDS011;50449;51.528;5.076;2023-07-20T09:06:14;93.93;;;89.85;;
64157;SDS011;50449;51.528;5.076;2023-07-20T09:08:42;99.45;;;95.13;;
64157;SDS011;50449;51.528;5.076;2023-07-20T09:13:35;93.20;;;89.05;;
64157;SDS011;50449;51.528;5.076;2023-07-20T09:16:03;92.17;;;88.17;;
64157;SDS011;50449;51.528;5.076;2023-07-20T09:18:30;99.88;;;95.53;;
64157;SDS011;50449;51.528;5.076;2023-07-20T09:21:03;93.20;;;89.20;;
64157;SDS011;50449;51.528;5.076;2023-07-20T09:23:33;96.60;;;92.30;;
64157;SDS011;50449;51.528;5.076;2023-07-20T09:25:59;98.13;;;93.78;;
64157;SDS011;50449;51.528;5.076;2023-07-20T09:28:25;96.70;;;92.25;;
64157;SDS011;50449;51.528;5.076;2023-07-20T09:30:51;98.60;;;94.22;;
64157;SDS011;50449;51.528;5.076;2023-07-20T09:33:18;99.15;;;94.85;;
64157;SDS011;50449;51.528;5.076;2023-07-20T09:35:46;100.82;;;96.28;;
64157;SDS011;50449;51.528;5.076;2023-07-20T09:38:11;101.57;;;96.82;;
64157;SDS011;50449;51.528;5.076;2023-07-20T09:40:39;101.35;;;96.85;;
64157;SDS011;50449;51.528;5.076;2023-07-20T09:43:07;98.85;;;94.47;;
64157;SDS011;50449;51.528;5.076;2023-07-20T09:45:33;100.88;;;96.47;;
64157;SDS011;50449;51.528;5.076;2023-07-20T09:48:04;102.85;;;98.45;;
64157;SDS011;50449;51.528;5.076;2023-07-20T09:50:34;101.68;;;97.20;;
64157;SDS011;50449;51.528;5.076;2023-07-20T09:53:04;102.70;;;98.10;;
64157;SDS011;50449;51.528;5.076;2023-07-20T09:55:30;101.45;;;96.75;;
64157;SDS011;50449;51.528;5.076;2023-07-20T09:57:57;103.50;;;99.00;;
64157;SDS011;50449;51.528;5.076;2023-07-20T10:00:24;102.88;;;98.47;;
64157;SDS011;50449;51.528;5.076;2023-07-20T10:02:49;106.95;;;102.35;;
64157;SDS011;50449;51.528;5.076;2023-07-20T10:05:17;106.00;;;101.40;;
64157;SDS011;50449;51.528;5.076;2023-07-20T10:07:44;105.30;;;100.70;;
64157;SDS011;50449;51.528;5.076;2023-07-20T10:10:13;106.53;;;101.93;;
64157;SDS011;50449;51.528;5.076;2023-07-20T10:12:40;108.18;;;103.38;;
64157;SDS011;50449;51.528;5.076;2023-07-20T10:15:20;105.43;;;100.72;;
64157;SDS011;50449;51.528;5.076;2023-07-20T10:20:35;104.32;;;99.82;;
64157;SDS011;50449;51.528;5.076;2023-07-20T10:23:03;106.75;;;102.10;;
64157;SDS011;50449;51.528;5.076;2023-07-20T10:25:29;104.05;;;99.60;;
64157;SDS011;50449;51.528;5.076;2023-07-20T10:27:56;107.00;;;102.40;;
64157;SDS011;50449;51.528;5.076;2023-07-20T10:30:22;110.70;;;105.60;;
64157;SDS011;50449;51.528;5.076;2023-07-20T10:32:48;108.28;;;103.57;;
64157;SDS011;50449;51.528;5.076;2023-07-20T10:35:15;112.10;;;107.20;;
64157;SDS011;50449;51.528;5.076;2023-07-20T10:37:49;107.47;;;102.78;;
64157;SDS011;50449;51.528;5.076;2023-07-20T10:40:36;106.63;;;102.03;;
64157;SDS011;50449;51.528;5.076;2023-07-20T10:43:04;109.35;;;104.47;;
64157;SDS011;50449;51.528;5.076;2023-07-20T10:45:42;105.63;;;101.05;;
64157;SDS011;50449;51.528;5.076;2023-07-20T10:48:14;106.75;;;101.90;;
64157;SDS011;50449;51.528;5.076;2023-07-20T10:50:41;111.18;;;106.38;;
64157;SDS011;50449;51.528;5.076;2023-07-20T10:55:37;109.88;;;105.13;;
64157;SDS011;50449;51.528;5.076;2023-07-20T10:58:06;110.28;;;105.55;;
64157;SDS011;50449;51.528;5.076;2023-07-20T11:00:33;108.80;;;104.20;;
64157;SDS011;50449;51.528;5.076;2023-07-20T11:02:59;114.75;;;109.78;;
64157;SDS011;50449;51.528;5.076;2023-07-20T11:05:37;108.47;;;103.75;;
64157;SDS011;50449;51.528;5.076;2023-07-20T11:08:06;109.40;;;104.70;;
64157;SDS011;50449;51.528;5.076;2023-07-20T11:10:35;110.03;;;104.93;;
64157;SDS011;50449;51.528;5.076;2023-07-20T11:13:15;116.30;;;111.30;;
64157;SDS011;50449;51.528;5.076;2023-07-20T11:15:44;114.45;;;109.57;;
64157;SDS011;50449;51.528;5.076;2023-07-20T11:18:32;111.72;;;106.80;;
64157;SDS011;50449;51.528;5.076;2023-07-20T11:20:59;111.40;;;106.50;;
64157;SDS011;50449;51.528;5.076;2023-07-20T11:23:25;109.32;;;104.30;;
64157;SDS011;50449;51.528;5.076;2023-07-20T11:25:51;120.18;;;114.93;;
64157;SDS011;50449;51.528;5.076;2023-07-20T11:28:16;109.28;;;104.50;;
64157;SDS011;50449;51.528;5.076;2023-07-20T11:30:42;113.43;;;108.38;;
64157;SDS011;50449;51.528;5.076;2023-07-20T11:33:10;114.50;;;109.60;;
64157;SDS011;50449;51.528;5.076;2023-07-20T11:35:36;116.78;;;111.78;;
64157;SDS011;50449;51.528;5.076;2023-07-20T11:38:16;112.20;;;107.30;;
64157;SDS011;50449;51.528;5.076;2023-07-20T11:40:44;112.72;;;107.75;;
64157;SDS011;50449;51.528;5.076;2023-07-20T11:43:11;121.43;;;116.28;;
64157;SDS011;50449;51.528;5.076;2023-07-20T11:45:38;118.38;;;113.10;;
64157;SDS011;50449;51.528;5.076;2023-07-20T11:48:04;117.10;;;112.10;;
64157;SDS011;50449;51.528;5.076;2023-07-20T11:50:30;119.68;;;114.60;;
64157;SDS011;50449;51.528;5.076;2023-07-20T11:52:55;117.90;;;112.60;;
64157;SDS011;50449;51.528;5.076;2023-07-20T11:55:21;116.40;;;111.05;;
64157;SDS011;50449;51.528;5.076;2023-07-20T12:00:27;113.40;;;108.57;;
64157;SDS011;50449;51.528;5.076;2023-07-20T12:02:53;122.35;;;117.07;;
64157;SDS011;50449;51.528;5.076;2023-07-20T12:05:19;116.85;;;111.82;;
64157;SDS011;50449;51.528;5.076;2023-07-20T12:07:47;122.50;;;117.25;;
64157;SDS011;50449;51.528;5.076;2023-07-20T12:10:15;117.90;;;112.82;;
64157;SDS011;50449;51.528;5.076;2023-07-20T12:12:41;122.07;;;116.68;;
64157;SDS011;50449;51.528;5.076;2023-07-20T12:15:14;120.82;;;115.25;;
64157;SDS011;50449;51.528;5.076;2023-07-20T12:17:50;120.93;;;115.72;;
64157;SDS011;50449;51.528;5.076;2023-07-20T12:25:44;117.20;;;112.18;;
64157;SDS011;50449;51.528;5.076;2023-07-20T12:28:12;123.28;;;117.88;;
64157;SDS011;50449;51.528;5.076;2023-07-20T12:30:39;123.40;;;118.05;;
64157;SDS011;50449;51.528;5.076;2023-07-20T12:33:05;115.72;;;110.80;;
64157;SDS011;50449;51.528;5.076;2023-07-20T12:35:31;116.95;;;111.95;;
64157;SDS011;50449;51.528;5.076;2023-07-20T12:37:57;120.00;;;114.80;;
64157;SDS011;50449;51.528;5.076;2023-07-20T12:40:23;124.82;;;119.47;;
64157;SDS011;50449;51.528;5.076;2023-07-20T12:42:49;120.72;;;115.53;;
64157;SDS011;50449;51.528;5.076;2023-07-20T12:45:14;116.65;;;111.45;;
64157;SDS011;50449;51.528;5.076;2023-07-20T12:47:40;123.93;;;118.55;;
64157;SDS011;50449;51.528;5.076;2023-07-20T12:50:08;118.00;;;112.95;;
64157;SDS011;50449;51.528;5.076;2023-07-20T12:52:36;116.50;;;111.50;;
64157;SDS011;50449;51.528;5.076;2023-07-20T12:55:03;122.25;;;117.03;;
64157;SDS011;50449;51.528;5.076;2023-07-20T12:57:36;123.80;;;118.55;;
64157;SDS011;50449;51.528;5.076;2023-07-20T13:00:02;122.88;;;117.43;;
64157;SDS011;50449;51.528;5.076;2023-07-20T13:02:30;119.22;;;114.10;;
64157;SDS011;50449;51.528;5.076;2023-07-20T13:04:56;120.47;;;115.20;;
64157;SDS011;50449;51.528;5.076;2023-07-20T13:07:28;124.57;;;119.20;;
64157;SDS011;50449;51.528;5.076;2023-07-20T13:09:59;126.97;;;121.55;;
64157;SDS011;50449;51.528;5.076;2023-07-20T13:12:26;122.18;;;117.03;;
64157;SDS011;50449;51.528;5.076;2023-07-20T13:14:55;124.55;;;119.30;;
64157;SDS011;50449;51.528;5.076;2023-07-20T13:17:21;123.50;;;118.25;;
64157;SDS011;50449;51.528;5.076;2023-07-20T13:19:50;116.80;;;111.50;;
64157;SDS011;50449;51.528;5.076;2023-07-20T13:22:15;121.50;;;116.38;;
64157;SDS011;50449;51.528;5.076;2023-07-20T13:24:41;119.25;;;114.18;;
64157;SDS011;50449;51.528;5.076;2023-07-20T13:27:06;125.38;;;120.07;;
64157;SDS011;50449;51.528;5.076;2023-07-20T13:29:32;121.68;;;116.22;;
64157;SDS011;50449;51.528;5.076;2023-07-20T13:31:58;128.27;;;122.78;;
64157;SDS011;50449;51.528;5.076;2023-07-20T13:34:25;116.68;;;111.47;;
64157;SDS011;50449;51.528;5.076;2023-07-20T13:36:50;130.10;;;124.55;;
64157;SDS011;50449;51.528;5.076;2023-07-20T13:39:16;120.38;;;114.85;;
64157;SDS011;50449;51.528;5.076;2023-07-20T13:41:41;116.82;;;111.82;;
64157;SDS011;50449;51.528;5.076;2023-07-20T13:44:07;120.63;;;115.25;;
64157;SDS011;50449;51.528;5.076;2023-07-20T13:46:32;117.68;;;112.00;;
64157;SDS011;50449;51.528;5.076;2023-07-20T13:48:58;129.38;;;123.88;;
64157;SDS011;50449;51.528;5.076;2023-07-20T13:51:23;126.65;;;121.25;;
64157;SDS011;50449;51.528;5.076;2023-07-20T13:53:48;121.85;;;116.68;;
64157;SDS011;50449;51.528;5.076;2023-07-20T13:56:14;121.18;;;115.63;;
64157;SDS011;50449;51.528;5.076;2023-07-20T13:58:39;119.15;;;114.05;;
64157;SDS011;50449;51.528;5.076;2023-07-20T14:01:05;120.50;;;115.30;;
64157;SDS011;50449;51.528;5.076;2023-07-20T14:03:30;125.75;;;120.00;;
64157;SDS011;50449;51.528;5.076;2023-07-20T14:05:55;127.32;;;121.85;;
64157;SDS011;50449;51.528;5.076;2023-07-20T14:08:21;121.53;;;116.28;;
64157;SDS011;50449;51.528;5.076;2023-07-20T14:10:47;120.70;;;115.47;;
64157;SDS011;50449;51.528;5.076;2023-07-20T14:13:13;127.00;;;121.53;;
64157;SDS011;50449;51.528;5.076;2023-07-20T14:15:39;117.05;;;112.05;;
64157;SDS011;50449;51.528;5.076;2023-07-20T14:18:05;118.63;;;113.32;;
64157;SDS011;50449;51.528;5.076;2023-07-20T14:20:30;120.93;;;115.78;;
64157;SDS011;50449;51.528;5.076;2023-07-20T14:22:56;123.47;;;117.80;;
64157;SDS011;50449;51.528;5.076;2023-07-20T14:25:21;126.72;;;121.22;;
64157;SDS011;50449;51.528;5.076;2023-07-20T14:27:46;120.53;;;115.10;;
64157;SDS011;50449;51.528;5.076;2023-07-20T14:30:12;122.70;;;117.43;;
64157;SDS011;50449;51.528;5.076;2023-07-20T14:32:38;122.43;;;117.05;;
64157;SDS011;50449;51.528;5.076;2023-07-20T14:35:04;123.80;;;118.13;;
64157;SDS011;50449;51.528;5.076;2023-07-20T14:37:30;119.53;;;114.43;;
64157;SDS011;50449;51.528;5.076;2023-07-20T14:39:55;120.28;;;115.07;;
64157;SDS011;50449;51.528;5.076;2023-07-20T14:42:20;125.32;;;119.88;;
64157;SDS011;50449;51.528;5.076;2023-07-20T14:44:46;118.38;;;113.32;;
64157;SDS011;50449;51.528;5.076;2023-07-20T14:47:11;123.63;;;117.35;;